createdAt,value
2019-02-07T00:00:10.595Z,68.97
2019-02-07T00:02:37.425Z,68.85
2019-02-07T00:05:04.601Z,54.27
2019-02-07T00:07:31.447Z,57.67
2019-02-07T00:09:58.294Z,63.02
2019-02-07T00:12:25.149Z,55.67
2019-02-07T00:14:52.197Z,54.48
2019-02-07T00:17:19.022Z,49.23
2019-02-07T00:19:45.905Z,55.23
2019-02-07T00:22:12.735Z,60.03
2019-02-07T00:24:42.930Z,51.00
2019-02-07T00:27:06.452Z,59.25
2019-02-07T00:29:33.258Z,54.80
2019-02-07T00:32:00.085Z,56.10
2019-02-07T00:34:26.933Z,50.00
2019-02-07T00:36:53.749Z,46.98
2019-02-07T00:39:20.592Z,42.30
2019-02-07T00:41:47.466Z,46.90
2019-02-07T00:44:14.326Z,42.07
2019-02-07T00:46:41.158Z,44.10
2019-02-07T00:49:08.014Z,45.48
2019-02-07T00:51:34.841Z,43.03
2019-02-07T00:54:01.689Z,46.58
2019-02-07T00:56:28.506Z,52.17
2019-02-07T00:58:55.349Z,44.33
2019-02-07T01:01:22.204Z,48.25
2019-02-07T01:03:49.022Z,46.53
2019-02-07T01:06:15.879Z,43.05
2019-02-07T01:08:42.749Z,45.00
2019-02-07T01:11:09.602Z,44.53
2019-02-07T01:13:36.450Z,48.48
2019-02-07T01:16:03.314Z,51.95
2019-02-07T01:18:30.139Z,46.47
2019-02-07T01:20:56.998Z,52.15
2019-02-07T01:23:23.825Z,52.60
2019-02-07T01:25:50.718Z,52.95
2019-02-07T01:28:17.558Z,59.63
2019-02-07T01:30:44.402Z,53.90
2019-02-07T01:33:11.232Z,61.37
2019-02-07T01:35:38.074Z,56.00
2019-02-07T01:38:04.898Z,47.60
2019-02-07T01:40:31.746Z,55.75
2019-02-07T01:42:58.586Z,52.53
2019-02-07T01:45:25.424Z,51.95
2019-02-07T01:47:52.250Z,56.43
2019-02-07T01:50:20.251Z,53.15
2019-02-07T01:52:47.070Z,49.55
2019-02-07T01:55:13.922Z,51.20
2019-02-07T01:57:40.754Z,53.85
2019-02-07T02:00:10.743Z,50.45
2019-02-07T02:02:37.622Z,50.03
2019-02-07T02:05:05.073Z,48.08
2019-02-07T02:07:31.907Z,51.40
2019-02-07T02:09:58.739Z,36.90
2019-02-07T02:12:25.622Z,45.67
2019-02-07T02:14:52.626Z,50.78
2019-02-07T02:17:19.529Z,51.43
2019-02-07T02:19:46.299Z,51.88
2019-02-07T02:22:13.150Z,43.43
2019-02-07T02:24:39.969Z,51.05
2019-02-07T02:27:06.818Z,51.47
2019-02-07T02:29:33.654Z,45.60
2019-02-07T02:32:00.521Z,46.53
2019-02-07T02:34:27.349Z,51.00
2019-02-07T02:36:54.193Z,44.93
2019-02-07T02:39:21.009Z,47.45
2019-02-07T02:41:47.875Z,42.23
2019-02-07T02:44:14.694Z,38.03
2019-02-07T02:46:41.742Z,44.98
2019-02-07T02:49:08.568Z,47.10
2019-02-07T02:51:35.405Z,44.53
2019-02-07T02:54:02.229Z,46.27
2019-02-07T02:56:29.075Z,44.88
2019-02-07T02:58:55.917Z,46.80
2019-02-07T03:01:35.153Z,47.43
2019-02-07T03:04:09.537Z,44.80
2019-02-07T03:06:51.721Z,48.05
2019-02-07T03:09:38.913Z,44.07
2019-02-07T03:12:19.218Z,45.65
2019-02-07T03:15:02.338Z,42.85
2019-02-07T03:17:50.757Z,41.57
2019-02-07T03:20:23.350Z,50.50
2019-02-07T03:22:56.040Z,51.15
2019-02-07T03:25:42.462Z,42.37
2019-02-07T03:28:30.703Z,44.50
2019-02-07T03:31:17.143Z,45.05
2019-02-07T03:34:04.706Z,49.25
2019-02-07T03:36:42.053Z,47.07
2019-02-07T03:39:19.681Z,50.30
2019-02-07T03:41:59.371Z,51.90
2019-02-07T03:44:47.720Z,48.60
2019-02-07T03:47:22.141Z,51.02
2019-02-07T03:49:59.082Z,48.23
2019-02-07T03:52:34.164Z,47.33
2019-02-07T03:55:10.061Z,40.50
2019-02-07T03:57:42.662Z,51.23
2019-02-07T04:00:19.111Z,49.95
2019-02-07T04:02:51.802Z,50.53
2019-02-07T04:05:30.141Z,48.40
2019-02-07T04:08:08.518Z,52.13
2019-02-07T04:10:45.110Z,50.80
2019-02-07T04:13:17.882Z,52.93
2019-02-07T04:15:58.465Z,51.35
2019-02-07T04:18:47.293Z,49.43
2019-02-07T04:21:30.751Z,46.43
2019-02-07T04:24:08.218Z,51.73
2019-02-07T04:26:47.865Z,56.20
2019-02-07T04:29:40.323Z,50.63
2019-02-07T04:32:19.896Z,54.93
2019-02-07T04:35:02.479Z,57.23
2019-02-07T04:37:54.893Z,57.73
2019-02-07T04:40:42.092Z,56.83
2019-02-07T04:43:30.450Z,48.65
2019-02-07T04:46:03.099Z,53.85
2019-02-07T04:48:51.511Z,49.50
2019-02-07T04:51:24.123Z,55.65
2019-02-07T04:54:03.622Z,53.17
2019-02-07T04:56:55.868Z,49.40
2019-02-07T04:59:37.866Z,52.85
2019-02-07T05:02:21.738Z,55.90
2019-02-07T05:04:54.386Z,52.05
2019-02-07T05:07:26.914Z,47.97
2019-02-07T05:09:59.517Z,53.73
2019-02-07T05:12:32.170Z,55.95
2019-02-07T05:15:10.650Z,49.90
2019-02-07T05:17:51.719Z,48.78
2019-02-07T05:20:31.257Z,53.60
2019-02-07T05:23:18.763Z,52.70
2019-02-07T05:25:51.306Z,54.25
2019-02-07T05:28:31.904Z,55.65
2019-02-07T05:31:18.414Z,53.60
2019-02-07T05:34:05.852Z,57.53
2019-02-07T05:36:42.486Z,55.50
2019-02-07T05:39:22.899Z,53.28
2019-02-07T05:42:11.218Z,55.23
2019-02-07T05:44:57.705Z,54.90
2019-02-07T05:47:30.437Z,58.35
2019-02-07T05:50:14.475Z,53.90
2019-02-07T05:52:47.277Z,58.65
2019-02-07T05:55:27.774Z,58.92
2019-02-07T05:58:00.418Z,51.33
2019-02-07T06:00:48.790Z,56.47
2019-02-07T06:03:21.278Z,58.55
2019-02-07T06:06:02.385Z,47.53
2019-02-07T06:08:34.994Z,53.78
2019-02-07T06:11:14.074Z,53.00
2019-02-07T06:13:52.724Z,56.30
2019-02-07T06:16:32.725Z,57.17
2019-02-07T06:19:05.182Z,59.55
2019-02-07T06:21:48.462Z,56.80
2019-02-07T06:24:26.058Z,58.90
2019-02-07T06:27:12.542Z,58.85
2019-02-07T06:29:50.170Z,55.63
2019-02-07T06:32:41.518Z,56.60
2019-02-07T06:35:17.729Z,57.53
2019-02-07T06:38:05.154Z,57.60
2019-02-07T06:40:37.702Z,58.63
2019-02-07T06:43:25.079Z,57.43
2019-02-07T06:46:13.527Z,58.20
2019-02-07T06:49:01.601Z,52.17
2019-02-07T06:51:39.858Z,60.40
2019-02-07T06:54:26.305Z,59.03
2019-02-07T06:57:13.815Z,57.05
2019-02-07T06:59:51.949Z,55.20
2019-02-07T07:02:24.514Z,47.87
2019-02-07T07:05:02.222Z,53.78
2019-02-07T07:07:43.246Z,55.60
2019-02-07T07:10:31.673Z,58.42
2019-02-07T07:13:10.697Z,59.90
2019-02-07T07:15:45.078Z,50.20
2019-02-07T07:18:31.522Z,51.68
2019-02-07T07:21:03.938Z,51.10
2019-02-07T07:23:36.590Z,54.73
2019-02-07T07:26:23.018Z,55.77
2019-02-07T07:29:09.703Z,54.55
2019-02-07T07:31:54.974Z,53.00
2019-02-07T07:34:41.460Z,51.00
2019-02-07T07:37:20.420Z,54.05
2019-02-07T07:39:58.181Z,51.93
2019-02-07T07:42:39.641Z,47.70
2019-02-07T07:45:23.899Z,48.30
2019-02-07T07:48:11.162Z,44.07
2019-02-07T07:50:43.625Z,49.83
2019-02-07T07:53:30.908Z,50.57
2019-02-07T07:56:20.142Z,51.93
2019-02-07T07:59:00.402Z,52.60
2019-02-07T08:01:46.873Z,52.70
2019-02-07T08:04:28.730Z,55.15
2019-02-07T08:07:04.285Z,47.80
2019-02-07T08:09:52.594Z,49.67
2019-02-07T08:12:31.994Z,48.27
2019-02-07T08:15:18.422Z,41.93
2019-02-07T08:18:04.887Z,44.03
2019-02-07T08:20:53.098Z,44.10
2019-02-07T08:23:28.844Z,47.87
2019-02-07T08:26:01.438Z,44.87
2019-02-07T08:28:43.431Z,42.30
2019-02-07T08:31:31.650Z,45.23
2019-02-07T08:34:19.910Z,48.55
2019-02-07T08:36:52.501Z,40.27
2019-02-07T08:39:38.954Z,46.37
2019-02-07T08:42:11.553Z,46.83
2019-02-07T08:44:44.124Z,37.97
2019-02-07T08:47:28.234Z,45.77
2019-02-07T08:50:00.899Z,40.90
2019-02-07T08:52:46.833Z,42.07
2019-02-07T08:55:17.282Z,41.73
2019-02-07T08:57:49.902Z,39.90
2019-02-07T09:00:25.296Z,43.00
2019-02-07T09:02:57.762Z,44.93
2019-02-07T09:05:46.071Z,44.53
2019-02-07T09:08:26.494Z,49.40
2019-02-07T09:11:14.758Z,42.90
2019-02-07T09:13:55.309Z,46.20
2019-02-07T09:16:43.678Z,39.33
2019-02-07T09:19:32.026Z,49.07
2019-02-07T09:22:15.672Z,45.63
2019-02-07T09:24:57.943Z,41.90
2019-02-07T09:27:40.182Z,43.33
2019-02-07T09:30:15.565Z,46.53
2019-02-07T09:32:58.282Z,45.77
2019-02-07T09:35:41.511Z,48.73
2019-02-07T09:38:13.994Z,48.25
2019-02-07T09:41:00.404Z,45.50
2019-02-07T09:43:48.762Z,52.43
2019-02-07T09:46:30.878Z,42.97
2019-02-07T09:49:10.215Z,42.70
2019-02-07T09:51:47.798Z,47.70
2019-02-07T09:54:20.249Z,51.10
2019-02-07T09:56:57.917Z,58.10
2019-02-07T09:59:30.390Z,55.90
2019-02-07T10:02:19.821Z,55.10
2019-02-07T10:04:54.246Z,51.97
2019-02-07T10:07:43.518Z,51.83
2019-02-07T10:10:26.380Z,54.20
2019-02-07T10:12:58.918Z,51.53
2019-02-07T10:15:31.599Z,50.23
2019-02-07T10:18:04.226Z,53.17
2019-02-07T10:20:45.744Z,47.40
2019-02-07T10:23:22.942Z,48.77
2019-02-07T10:26:10.274Z,47.70
2019-02-07T10:28:56.717Z,47.47
2019-02-07T10:31:29.255Z,46.80
2019-02-07T10:34:06.762Z,46.60
2019-02-07T10:36:42.262Z,45.20
2019-02-07T10:39:26.507Z,41.90
2019-02-07T10:42:14.878Z,41.30
2019-02-07T10:44:47.499Z,35.67
2019-02-07T10:47:26.775Z,37.37
2019-02-07T10:49:59.705Z,38.80
2019-02-07T10:52:40.139Z,42.27
2019-02-07T10:55:27.675Z,42.53
2019-02-07T10:58:14.949Z,37.47
2019-02-07T11:00:53.294Z,35.07
2019-02-07T11:03:25.837Z,41.40
2019-02-07T11:06:06.109Z,41.80
2019-02-07T11:08:55.381Z,38.88
2019-02-07T11:11:29.598Z,38.33
2019-02-07T11:14:13.090Z,38.65
2019-02-07T11:16:51.967Z,37.50
2019-02-07T11:19:38.389Z,38.07
2019-02-07T11:22:22.950Z,40.20
2019-02-07T11:25:05.966Z,38.28
2019-02-07T11:27:43.274Z,31.80
2019-02-07T11:30:35.658Z,34.85
2019-02-07T11:33:12.241Z,37.33
2019-02-07T11:35:58.694Z,31.17
2019-02-07T11:38:40.341Z,27.10
2019-02-07T11:41:28.842Z,27.60
2019-02-07T11:44:15.294Z,27.97
2019-02-07T11:46:50.843Z,25.30
2019-02-07T11:49:27.579Z,27.67
2019-02-07T11:52:05.403Z,28.20
2019-02-07T11:54:52.823Z,31.43
2019-02-07T11:57:36.167Z,31.63
2019-02-07T12:00:23.474Z,28.40
2019-02-07T12:02:56.414Z,27.07
2019-02-07T12:05:39.269Z,27.00
2019-02-07T12:08:20.392Z,28.90
2019-02-07T12:10:59.545Z,28.73
2019-02-07T12:13:48.949Z,29.20
2019-02-07T12:16:27.903Z,22.53
2019-02-07T12:19:00.286Z,26.23
2019-02-07T12:21:35.148Z,26.27
2019-02-07T12:24:16.238Z,25.47
2019-02-07T12:26:57.866Z,25.50
2019-02-07T12:29:30.474Z,28.53
2019-02-07T12:32:17.706Z,23.03
2019-02-07T12:35:00.949Z,36.70
2019-02-07T12:37:36.842Z,25.67
2019-02-07T12:40:10.140Z,27.20
2019-02-07T12:42:42.703Z,29.13
2019-02-07T12:45:19.279Z,29.50
2019-02-07T12:47:51.781Z,32.00
2019-02-07T12:50:31.018Z,30.00
2019-02-07T12:53:13.626Z,31.05
2019-02-07T12:55:52.337Z,33.40
2019-02-07T12:58:28.683Z,28.50
2019-02-07T13:01:16.958Z,27.40
2019-02-07T13:03:49.398Z,25.60
2019-02-07T13:06:37.737Z,28.30
2019-02-07T13:09:14.142Z,25.47
2019-02-07T13:11:53.720Z,28.20
2019-02-07T13:14:28.945Z,30.37
2019-02-07T13:17:05.078Z,28.23
2019-02-07T13:19:40.568Z,27.20
2019-02-07T13:22:25.958Z,28.47
2019-02-07T13:25:10.149Z,28.00
2019-02-07T13:27:42.594Z,25.17
2019-02-07T13:30:30.523Z,29.82
2019-02-07T13:33:14.049Z,30.10
2019-02-07T13:35:46.443Z,26.20
2019-02-07T13:38:25.870Z,25.87
2019-02-07T13:41:10.743Z,24.00
2019-02-07T13:43:57.197Z,29.37
2019-02-07T13:46:44.402Z,21.57
2019-02-07T13:49:28.821Z,30.13
2019-02-07T13:52:01.263Z,21.77
2019-02-07T13:54:35.526Z,25.00
2019-02-07T13:57:08.142Z,21.37
2019-02-07T13:59:48.969Z,24.35
2019-02-07T14:02:28.375Z,24.93
2019-02-07T14:05:08.949Z,22.93
2019-02-07T14:07:44.827Z,21.57
2019-02-07T14:10:19.526Z,22.43
2019-02-07T14:12:56.314Z,27.37
2019-02-07T14:15:37.682Z,23.97
2019-02-07T14:18:16.781Z,29.07
2019-02-07T14:21:08.962Z,18.47
2019-02-07T14:23:49.827Z,21.43
2019-02-07T14:26:37.310Z,24.03
2019-02-07T14:29:16.099Z,23.03
2019-02-07T14:32:05.446Z,28.00
2019-02-07T14:34:38.014Z,24.37
2019-02-07T14:37:13.958Z,21.87
2019-02-07T14:39:54.060Z,23.03
2019-02-07T14:42:31.302Z,22.60
2019-02-07T14:45:04.119Z,26.25
2019-02-07T14:47:31.025Z,27.90
2019-02-07T14:49:57.918Z,31.90
2019-02-07T14:52:24.741Z,23.20
2019-02-07T14:54:51.685Z,22.70
2019-02-07T14:57:18.549Z,23.40
2019-02-07T14:59:45.395Z,23.03
2019-02-07T15:02:12.230Z,26.75
2019-02-07T15:04:39.095Z,24.40
2019-02-07T15:07:05.974Z,22.67
2019-02-07T15:09:32.828Z,20.60
2019-02-07T15:11:59.671Z,24.57
2019-02-07T15:14:26.526Z,27.73
2019-02-07T15:16:53.366Z,25.80
2019-02-07T15:19:20.226Z,27.43
2019-02-07T15:21:47.223Z,25.57
2019-02-07T15:24:14.137Z,24.63
2019-02-07T15:26:40.974Z,27.03
2019-02-07T15:29:07.844Z,23.40
2019-02-07T15:31:34.687Z,24.03
2019-02-07T15:34:01.558Z,24.47
2019-02-07T15:36:28.434Z,26.13
2019-02-07T15:38:55.303Z,24.27
2019-02-07T15:41:22.178Z,28.90
2019-02-07T15:43:49.191Z,26.30
2019-02-07T15:46:16.063Z,25.73
2019-02-07T15:48:42.902Z,24.33
2019-02-07T15:51:09.750Z,27.30
2019-02-07T15:53:36.599Z,20.60
2019-02-07T15:56:03.463Z,24.73
2019-02-07T15:58:35.952Z,27.57
2019-02-07T16:01:08.507Z,33.43
2019-02-07T16:03:39.860Z,25.60
2019-02-07T16:06:06.717Z,24.07
2019-02-07T16:08:33.542Z,25.47
2019-02-07T16:11:00.386Z,30.90
2019-02-07T16:13:27.237Z,27.10
2019-02-07T16:15:54.094Z,29.40
2019-02-07T16:18:20.930Z,28.93
2019-02-07T16:20:49.192Z,26.47
2019-02-07T16:23:14.686Z,26.87
2019-02-07T16:25:41.570Z,24.00
2019-02-07T16:28:08.490Z,26.33
2019-02-07T16:30:35.326Z,31.77
2019-02-07T16:33:02.167Z,29.07
2019-02-07T16:35:29.015Z,24.10
2019-02-07T16:37:55.849Z,22.90
2019-02-07T16:40:22.703Z,24.60
2019-02-07T16:42:49.674Z,24.07
2019-02-07T16:45:16.521Z,24.40
2019-02-07T16:47:43.351Z,26.97
2019-02-07T16:50:12.137Z,27.17
2019-02-07T16:52:38.969Z,29.07
2019-02-07T16:55:07.421Z,30.82
2019-02-07T16:57:34.264Z,27.70
2019-02-07T17:00:01.118Z,24.53
2019-02-07T17:02:27.966Z,46.57
2019-02-07T17:04:54.818Z,41.20
2019-02-07T17:07:21.666Z,42.87
2019-02-07T17:09:48.579Z,43.07
2019-02-07T17:12:15.497Z,39.60
2019-02-07T17:14:42.350Z,30.63
2019-02-07T17:17:09.218Z,26.67
2019-02-07T17:19:36.049Z,26.13
2019-02-07T17:22:02.966Z,26.90
2019-02-07T17:24:29.766Z,33.80
2019-02-07T17:26:56.614Z,35.07
2019-02-07T17:29:23.450Z,34.53
2019-02-07T17:31:50.302Z,26.40
2019-02-07T17:34:17.250Z,32.25
2019-02-07T17:36:44.174Z,28.90
2019-02-07T17:39:11.009Z,31.00
2019-02-07T17:41:37.874Z,30.40
2019-02-07T17:44:04.726Z,26.97
2019-02-07T17:46:31.566Z,31.52
2019-02-07T17:48:58.389Z,31.00
2019-02-07T17:51:25.255Z,31.13
2019-02-07T17:53:52.138Z,27.10
2019-02-07T17:56:18.982Z,31.40
2019-02-07T17:58:45.839Z,24.77
2019-02-07T18:01:12.697Z,28.93
2019-02-07T18:03:39.542Z,25.10
2019-02-07T18:06:07.510Z,29.70
2019-02-07T18:08:34.362Z,25.37
2019-02-07T18:11:01.278Z,27.23
2019-02-07T18:13:28.118Z,25.73
2019-02-07T18:15:57.448Z,24.20
2019-02-07T18:18:21.882Z,20.87
2019-02-07T18:20:48.873Z,20.13
2019-02-07T18:23:15.736Z,25.03
2019-02-07T18:25:42.586Z,23.20
2019-02-07T18:28:09.410Z,27.85
2019-02-07T18:30:36.262Z,22.43
2019-02-07T18:33:03.116Z,22.60
2019-02-07T18:35:30.018Z,25.82
2019-02-07T18:37:56.878Z,24.43
2019-02-07T18:40:24.518Z,20.10
2019-02-07T18:42:51.373Z,24.77
2019-02-07T18:45:18.398Z,26.53
2019-02-07T18:47:45.249Z,20.00
2019-02-07T18:50:15.598Z,23.97
2019-02-07T18:52:42.538Z,26.73
2019-02-07T18:55:09.370Z,32.23
2019-02-07T18:57:36.276Z,54.87
2019-02-07T19:00:04.776Z,31.77
2019-02-07T19:02:31.634Z,24.77
2019-02-07T19:04:58.746Z,29.47
2019-02-07T19:07:25.618Z,28.50
2019-02-07T19:09:52.712Z,28.97
2019-02-07T19:12:19.646Z,25.73
2019-02-07T19:14:46.483Z,30.37
2019-02-07T19:17:13.338Z,32.07
2019-02-07T19:19:40.170Z,26.93
2019-02-07T19:22:07.251Z,30.45
2019-02-07T19:24:34.084Z,27.13
2019-02-07T19:27:00.937Z,26.37
2019-02-07T19:29:27.770Z,25.50
2019-02-07T19:31:54.661Z,24.20
2019-02-07T19:34:21.497Z,22.27
2019-02-07T19:36:48.353Z,22.00
2019-02-07T19:39:15.182Z,20.17
2019-02-07T19:41:42.041Z,20.03
2019-02-07T19:44:08.963Z,18.43
2019-02-07T19:46:35.823Z,20.80
2019-02-07T19:49:02.694Z,14.23
2019-02-07T19:51:29.546Z,13.57
2019-02-07T19:53:56.406Z,16.23
2019-02-07T19:56:23.334Z,13.33
2019-02-07T19:58:50.755Z,19.10
2019-02-07T20:01:17.719Z,21.10
2019-02-07T20:03:44.570Z,14.50
2019-02-07T20:06:11.479Z,19.87
2019-02-07T20:08:38.346Z,18.65
2019-02-07T20:11:05.310Z,18.45
2019-02-07T20:13:32.198Z,19.43
2019-02-07T20:15:59.046Z,22.97
2019-02-07T20:18:26.035Z,18.10
2019-02-07T20:20:52.878Z,17.77
2019-02-07T20:23:19.737Z,20.10
2019-02-07T20:25:46.734Z,19.10
2019-02-07T20:28:13.502Z,20.97
2019-02-07T20:30:41.411Z,18.50
2019-02-07T20:33:08.974Z,18.70
2019-02-07T20:35:35.830Z,14.97
2019-02-07T20:38:02.713Z,17.70
2019-02-07T20:40:29.582Z,21.53
2019-02-07T20:42:56.450Z,15.27
2019-02-07T20:45:23.298Z,13.80
2019-02-07T20:47:50.166Z,15.03
2019-02-07T20:50:19.238Z,15.30
2019-02-07T20:52:46.422Z,17.37
2019-02-07T20:55:13.265Z,13.57
2019-02-07T20:57:40.130Z,20.70
2019-02-07T21:00:12.192Z,17.10
2019-02-07T21:02:39.046Z,15.27
2019-02-07T21:05:06.674Z,19.67
2019-02-07T21:07:33.523Z,18.57
2019-02-07T21:10:00.389Z,15.60
2019-02-07T21:12:27.227Z,11.73
2019-02-07T21:14:54.068Z,12.77
2019-02-07T21:17:20.922Z,16.80
2019-02-07T21:19:47.763Z,19.97
2019-02-07T21:22:14.622Z,17.57
2019-02-07T21:24:41.457Z,15.70
2019-02-07T21:27:08.326Z,23.00
2019-02-07T21:29:35.166Z,16.37
2019-02-07T21:32:02.086Z,15.40
2019-02-07T21:34:28.942Z,15.70
2019-02-07T21:36:55.766Z,15.23
2019-02-07T21:39:22.650Z,11.33
2019-02-07T21:41:49.499Z,10.13
2019-02-07T21:44:16.354Z,11.47
2019-02-07T21:46:43.183Z,11.47
2019-02-07T21:49:10.034Z,11.03
2019-02-07T21:51:36.865Z,14.50
2019-02-07T21:54:03.766Z,10.73
2019-02-07T21:56:30.701Z,15.00
2019-02-07T21:58:57.566Z,9.53
2019-02-07T22:01:24.398Z,12.17
2019-02-07T22:03:51.274Z,12.40
2019-02-07T22:06:18.112Z,9.97
2019-02-07T22:08:44.957Z,11.97
2019-02-07T22:11:11.781Z,13.27
2019-02-07T22:13:38.658Z,12.20
2019-02-07T22:16:05.503Z,11.80
2019-02-07T22:18:32.356Z,13.50
2019-02-07T22:20:59.185Z,8.97
2019-02-07T22:23:26.033Z,15.13
2019-02-07T22:25:52.870Z,10.00
2019-02-07T22:28:19.742Z,13.57
2019-02-07T22:30:46.570Z,12.90
2019-02-07T22:33:13.415Z,14.45
2019-02-07T22:35:40.246Z,14.17
2019-02-07T22:38:07.329Z,14.38
2019-02-07T22:40:34.158Z,16.27
2019-02-07T22:43:01.199Z,15.23
2019-02-07T22:45:28.051Z,16.23
2019-02-07T22:47:54.982Z,21.30
2019-02-07T22:50:23.301Z,15.32
2019-02-07T22:52:56.839Z,21.50
2019-02-07T22:55:17.289Z,14.23
2019-02-07T22:57:44.150Z,15.70
2019-02-07T23:00:38.830Z,15.60
2019-02-07T23:03:05.679Z,16.93
2019-02-07T23:05:32.518Z,19.57
2019-02-07T23:07:59.351Z,17.10
2019-02-07T23:10:26.200Z,15.80
2019-02-07T23:12:53.017Z,18.65
2019-02-07T23:15:19.873Z,19.93
2019-02-07T23:17:46.708Z,14.00
2019-02-07T23:20:13.614Z,17.63
2019-02-07T23:22:40.449Z,15.03
2019-02-07T23:25:07.311Z,16.17
2019-02-07T23:27:34.170Z,15.43
2019-02-07T23:30:01.234Z,13.90
2019-02-07T23:32:28.073Z,18.35
2019-02-07T23:34:54.925Z,17.93
2019-02-07T23:37:21.765Z,17.10
2019-02-07T23:39:48.613Z,14.63
2019-02-07T23:42:15.455Z,14.70
2019-02-07T23:44:42.307Z,15.00
2019-02-07T23:47:09.138Z,17.13
2019-02-07T23:49:36.042Z,12.57
2019-02-07T23:52:02.871Z,12.70
2019-02-07T23:54:29.727Z,14.00
2019-02-07T23:56:56.565Z,14.37
2019-02-07T23:59:23.417Z,16.77
